»·PEaware :: N129WS KBUR-KFUL

N129WS :: KBUR-KFUL

FLIGHT INFORMATION

Flight Status: Arrived
Operator: Privately registered:
United States
More flights under this callsign
Pilot: Michael M. (12217)
Aircraft: Unknown
(PIPA)
More flights by this aircraft type
Origin: KBUR Bob Hope-Burbank
United States
Destination: KFUL Fullerton Mun
United States
More flights between these airports :: More routes between these airports
Route: +KBUR VPLRB EMT CONGA KFUL
File this flight plan on PilotEdge
Remarks: CAT 9
Altitude:
(Current/Filed)
3,500ft
Speed:
(Current/Filed)
1170kts
Departed: 30-Mar-17 07:29 PM
Arrived: 30-Mar-17 07:43 PM
Distance/Time
Traveled:
27nm/0:14
Distance/Time
To Go:
Arrived

Flight Plot

Page will automatically refresh every two minutes.

Flight plan parsing failed; only flown route is shown


Map Options




Map Legend


Flown Route
Filed Route
Departure Airport
Arrival Airport
Navaid (VOR, NDB)
Fix

Horizontal Profiles

Position Reports

Time Latitude Longitude Heading Altitude Ground
Speed
30-Mar-17 19:04 34.200198 -118.358750 262 720ft 0kts
30-Mar-17 19:05 34.200198 -118.358750 262 720ft 0kts
30-Mar-17 19:06 34.200198 -118.358750 262 720ft 0kts
30-Mar-17 19:07 34.200198 -118.358750 262 720ft 0kts
30-Mar-17 19:08 34.200198 -118.358750 262 720ft 0kts
30-Mar-17 19:09 34.200198 -118.358750 262 720ft 0kts
30-Mar-17 19:10 34.200198 -118.358750 262 720ft 0kts
30-Mar-17 19:11 34.200198 -118.358750 262 720ft 0kts
30-Mar-17 19:12 34.200198 -118.358750 262 720ft 0kts
30-Mar-17 19:13 34.200198 -118.358750 262 720ft 0kts
30-Mar-17 19:14 34.200198 -118.358750 262 720ft 0kts
30-Mar-17 19:15 34.200198 -118.358750 262 720ft 0kts
30-Mar-17 19:16 34.200198 -118.358750 262 720ft 0kts
30-Mar-17 19:17 34.200198 -118.358750 262 720ft 0kts
30-Mar-17 19:18 34.200198 -118.358750 262 720ft 0kts
30-Mar-17 19:19 34.200198 -118.358751 262 720ft 0kts
30-Mar-17 19:20 34.200198 -118.358751 262 720ft 0kts
30-Mar-17 19:21 34.200198 -118.358751 262 720ft 0kts
30-Mar-17 19:22 34.200198 -118.358751 262 720ft 0kts
30-Mar-17 19:23 34.199288 -118.358785 173 717ft 0kts
30-Mar-17 19:24 34.198878 -118.358032 88 714ft 0kts
30-Mar-17 19:25 34.197523 -118.357967 187 710ft 19kts
30-Mar-17 19:26 34.196219 -118.357049 166 705ft 11kts
30-Mar-17 19:27 34.194709 -118.356633 167 701ft 0kts
30-Mar-17 19:28 34.194708 -118.356633 167 701ft 0kts
30-Mar-17 19:29 34.194575 -118.355574 347 699ft 5kts
30-Mar-17 19:30 34.212572 -118.355067 34 1811ft 109kts
30-Mar-17 19:31 34.201660 -118.307569 107 2530ft 205kts
30-Mar-17 19:32 34.181681 -118.241490 102 2462ft 218kts
30-Mar-17 19:33 34.166146 -118.176431 102 3358ft 192kts
30-Mar-17 19:34 34.137637 -118.121406 122 3425ft 211kts
30-Mar-17 19:35 34.106137 -118.063954 119 3425ft 216kts
30-Mar-17 19:36 34.061863 -118.021169 154 3427ft 223kts
30-Mar-17 19:37 34.005507 -117.993051 157 3394ft 207kts
30-Mar-17 19:38 33.965911 -117.973679 162 3491ft 114kts
30-Mar-17 19:39 33.939220 -117.960909 163 3537ft 101kts
30-Mar-17 19:40 33.914717 -117.949262 163 3539ft 97kts
30-Mar-17 19:41 33.892306 -117.939576 172 2770ft 97kts
30-Mar-17 19:42 33.868273 -117.944903 222 928ft 86kts
30-Mar-17 19:43 33.873670 -117.968693 269 244ft 86kts
30-Mar-17 19:44 33.871744 -117.979348 162 92ft 0kts
30-Mar-17 19:45 33.871039 -117.978979 88 92ft 0kts
30-Mar-17 19:46 33.871039 -117.978968 88 92ft 0kts
30-Mar-17 19:47 33.871039 -117.978968 88 92ft 0kts
30-Mar-17 19:48 33.871039 -117.978968 88 92ft 0kts
30-Mar-17 19:49 33.871039 -117.978968 88 92ft 0kts
30-Mar-17 19:50 33.871039 -117.978968 88 92ft 0kts
30-Mar-17 19:51 33.871039 -117.978968 88 92ft 0kts
30-Mar-17 19:52 33.871039 -117.978968 88 92ft 0kts
30-Mar-17 19:53 33.871039 -117.978968 88 92ft 0kts
30-Mar-17 19:54 33.871039 -117.978968 88 92ft 0kts
30-Mar-17 19:55 33.871039 -117.978968 88 92ft 0kts
30-Mar-17 19:56 33.871039 -117.978968 88 92ft 0kts
30-Mar-17 19:57 33.871039 -117.978968 88 92ft 0kts
30-Mar-17 19:58 33.871039 -117.978968 88 92ft 0kts

Navigation Log

Ident Type
Flight plan parsing failed, navigation log unavailable